createdAt,value
2019-03-23T00:00:52.698Z,96992.91
2019-03-23T00:03:20.029Z,96993.30
2019-03-23T00:05:47.387Z,96989.07
2019-03-23T00:08:14.759Z,96987.31
2019-03-23T00:10:42.094Z,96988.28
2019-03-23T00:13:09.451Z,96989.64
2019-03-23T00:15:36.498Z,96986.97
2019-03-23T00:18:03.817Z,96988.27
2019-03-23T00:20:31.230Z,96986.62
2019-03-23T00:22:58.564Z,96991.41
2019-03-23T00:25:25.866Z,96990.59
2019-03-23T00:27:52.974Z,96991.67
2019-03-23T00:30:20.030Z,96990.85
2019-03-23T00:32:47.079Z,96991.14
2019-03-23T00:35:14.415Z,96980.11
2019-03-23T00:37:42.681Z,96976.89
2019-03-23T00:40:09.979Z,96983.82
2019-03-23T00:42:37.019Z,96982.17
2019-03-23T00:45:04.064Z,96981.56
2019-03-23T00:47:31.350Z,96979.84
2019-03-23T00:49:58.401Z,96984.65
2019-03-23T00:52:25.443Z,96972.84
2019-03-23T00:54:52.489Z,96982.71
2019-03-23T00:57:19.527Z,96978.65
2019-03-23T00:59:46.581Z,96984.13
2019-03-23T01:02:13.859Z,96988.91
2019-03-23T01:04:40.907Z,96981.39
2019-03-23T01:07:08.196Z,96986.79
2019-03-23T01:09:35.229Z,96986.09
2019-03-23T01:12:02.530Z,96982.11
2019-03-23T01:14:29.557Z,96974.00
2019-03-23T01:16:56.615Z,96979.60
2019-03-23T01:19:23.894Z,96980.61
2019-03-23T01:21:50.948Z,96982.09
2019-03-23T01:24:17.982Z,96979.05
2019-03-23T01:26:45.392Z,96979.31
2019-03-23T01:29:12.441Z,96980.21
2019-03-23T01:31:39.793Z,96982.98
2019-03-23T01:34:06.911Z,96986.23
2019-03-23T01:36:33.974Z,96982.84
2019-03-23T01:39:01.003Z,96986.75
2019-03-23T01:41:30.138Z,96990.43
2019-03-23T01:43:57.183Z,96986.78
2019-03-23T01:46:24.574Z,96990.34
2019-03-23T01:48:51.613Z,96993.20
2019-03-23T01:51:18.739Z,96992.84
2019-03-23T01:53:46.117Z,96991.55
2019-03-23T01:56:13.452Z,96984.09
2019-03-23T01:58:40.497Z,96980.79
2019-03-23T02:01:07.547Z,96986.81
2019-03-23T02:03:34.906Z,96981.61
2019-03-23T02:06:01.964Z,96982.92
2019-03-23T02:08:29.009Z,96983.17
2019-03-23T02:10:56.373Z,96977.27
2019-03-23T02:13:23.435Z,96978.45
2019-03-23T02:15:50.760Z,96981.61
2019-03-23T02:18:18.133Z,96978.19
2019-03-23T02:20:45.166Z,96978.41
2019-03-23T02:23:12.221Z,96972.82
2019-03-23T02:25:39.278Z,96977.55
2019-03-23T02:28:06.330Z,96973.52
2019-03-23T02:30:33.635Z,96980.24
2019-03-23T02:33:00.695Z,96982.72
2019-03-23T02:35:27.725Z,96986.02
2019-03-23T02:37:54.784Z,96985.31
2019-03-23T02:40:21.823Z,96984.36
2019-03-23T02:42:49.119Z,96986.97
2019-03-23T02:45:16.162Z,96982.23
2019-03-23T02:47:43.470Z,96984.62
2019-03-23T02:50:10.858Z,96978.46
2019-03-23T02:52:37.913Z,96984.84
2019-03-23T02:55:04.959Z,96982.63
2019-03-23T02:57:32.313Z,96984.62
2019-03-23T02:59:59.357Z,96981.55
2019-03-23T03:02:26.733Z,96975.16
2019-03-23T03:04:54.718Z,96980.38
2019-03-23T03:07:22.013Z,96977.20
2019-03-23T03:09:49.321Z,96976.98
2019-03-23T03:12:16.612Z,96976.41
2019-03-23T03:14:43.654Z,96976.27
2019-03-23T03:17:10.724Z,96978.70
2019-03-23T03:19:38.005Z,96977.66
2019-03-23T03:22:05.301Z,96968.33
2019-03-23T03:24:32.339Z,96971.76
2019-03-23T03:26:59.751Z,96967.73
2019-03-23T03:29:26.788Z,96972.93
2019-03-23T03:31:53.870Z,96963.26
2019-03-23T03:34:21.149Z,96961.48
2019-03-23T03:36:48.454Z,96965.25
2019-03-23T03:39:15.492Z,96964.30
2019-03-23T03:41:42.866Z,96965.73
2019-03-23T03:44:09.915Z,96964.78
2019-03-23T03:46:36.960Z,96960.28
2019-03-23T03:49:12.378Z,96958.38
2019-03-23T03:51:33.052Z,96958.25
2019-03-23T03:54:00.457Z,96958.31
2019-03-23T03:56:27.828Z,96958.78
2019-03-23T03:58:54.885Z,96952.77
2019-03-23T04:01:21.923Z,96953.33
2019-03-23T04:03:49.230Z,96950.38
2019-03-23T04:06:16.615Z,96955.88
2019-03-23T04:08:43.680Z,96958.50
2019-03-23T04:11:11.022Z,96962.05
2019-03-23T04:13:38.074Z,96959.58
2019-03-23T04:16:05.711Z,96960.09
2019-03-23T04:18:33.071Z,96958.22
2019-03-23T04:21:00.360Z,96954.22
2019-03-23T04:23:27.695Z,96961.57
2019-03-23T04:25:54.995Z,96966.55
2019-03-23T04:28:22.043Z,96960.42
2019-03-23T04:30:49.349Z,96958.42
2019-03-23T04:33:16.726Z,96962.22
2019-03-23T04:35:43.760Z,96957.05
2019-03-23T04:40:43.706Z,96960.30
2019-03-23T04:43:10.758Z,96960.80
2019-03-23T04:45:38.867Z,96968.73
2019-03-23T04:48:05.923Z,96968.39
2019-03-23T04:50:33.314Z,96966.52
2019-03-23T04:53:00.661Z,96967.47
2019-03-23T04:55:27.699Z,96966.17
2019-03-23T04:57:54.998Z,96964.87
2019-03-23T05:00:22.036Z,96969.48
2019-03-23T05:02:49.088Z,96967.83
2019-03-23T05:05:16.133Z,96966.88
2019-03-23T05:07:43.462Z,96969.13
2019-03-23T05:10:11.842Z,96976.33
2019-03-23T05:12:38.881Z,96973.25
2019-03-23T05:15:05.938Z,96971.61
2019-03-23T05:17:32.973Z,96976.09
2019-03-23T05:20:00.357Z,96979.40
2019-03-23T05:22:27.387Z,96979.88
2019-03-23T05:24:54.746Z,96981.77
2019-03-23T05:27:22.098Z,96981.89
2019-03-23T05:29:49.453Z,96986.23
2019-03-23T05:32:16.810Z,96983.45
2019-03-23T05:34:43.868Z,96988.16
2019-03-23T05:37:11.229Z,96994.75
2019-03-23T05:39:38.286Z,96986.91
2019-03-23T05:42:05.630Z,96989.02
2019-03-23T05:44:33.755Z,96988.73
2019-03-23T05:47:01.046Z,96992.61
2019-03-23T05:49:28.368Z,96993.34
2019-03-23T05:51:55.761Z,96988.38
2019-03-23T05:54:22.811Z,96995.96
2019-03-23T05:56:49.855Z,96988.36
2019-03-23T05:59:16.913Z,96991.70
2019-03-23T06:01:43.963Z,96998.88
2019-03-23T06:09:36.164Z,97006.61
2019-03-23T06:12:07.775Z,97008.27
2019-03-23T06:17:08.668Z,97009.69
2019-03-23T06:19:38.263Z,97012.45
2019-03-23T06:22:13.504Z,97012.31
2019-03-23T06:24:42.013Z,97007.66
2019-03-23T06:27:16.137Z,97003.48
2019-03-23T06:32:24.788Z,96997.48
2019-03-23T06:34:52.219Z,97005.95
2019-03-23T06:40:08.957Z,97003.34
2019-03-23T06:42:59.750Z,97004.59
2019-03-23T06:45:24.170Z,97008.43
2019-03-23T06:47:54.563Z,97007.25
2019-03-23T06:52:58.349Z,97005.45
2019-03-23T06:55:30.355Z,96999.70
2019-03-23T06:57:58.502Z,97004.75
2019-03-23T07:08:31.363Z,96994.72
2019-03-23T07:10:54.629Z,97013.06
2019-03-23T07:13:22.563Z,97010.30
2019-03-23T07:15:51.141Z,97007.63
2019-03-23T07:18:29.755Z,97011.34
2019-03-23T07:20:56.821Z,97007.44
2019-03-23T07:23:25.097Z,97009.70
2019-03-23T07:25:53.288Z,97017.54
2019-03-23T07:31:09.357Z,97014.33
2019-03-23T07:33:43.681Z,97014.03
2019-03-23T07:36:15.456Z,97012.78
2019-03-23T07:41:11.828Z,97014.95
2019-03-23T07:43:42.244Z,97015.50
2019-03-23T07:46:11.456Z,97017.02
2019-03-23T07:48:50.659Z,97022.99
2019-03-23T07:56:27.872Z,97023.20
2019-03-23T07:59:03.301Z,97026.81
2019-03-23T08:01:35.310Z,97025.83
2019-03-23T08:04:13.721Z,97022.91
2019-03-23T08:06:46.721Z,97025.97
2019-03-23T08:09:25.833Z,97026.14
2019-03-23T08:11:54.276Z,97024.55
2019-03-23T08:14:25.239Z,97028.73
2019-03-23T08:19:28.066Z,97028.30
2019-03-23T08:21:55.111Z,97028.91
2019-03-23T08:24:31.254Z,97030.80
2019-03-23T08:29:40.224Z,97033.38
2019-03-23T08:32:14.607Z,97030.20
2019-03-23T08:34:42.053Z,97034.45
2019-03-23T08:37:22.586Z,97039.03
2019-03-23T08:39:55.251Z,97036.13
2019-03-23T08:42:23.183Z,97030.94
2019-03-23T08:44:54.925Z,97036.55
2019-03-23T08:47:36.600Z,97035.09
2019-03-23T08:50:04.195Z,97033.51
2019-03-23T08:52:48.912Z,97030.02
2019-03-23T08:55:16.156Z,97034.37
2019-03-23T08:57:45.346Z,97032.38
2019-03-23T09:02:54.883Z,97031.76
2019-03-23T09:05:22.149Z,97032.23
2019-03-23T09:07:49.272Z,97032.52
2019-03-23T09:12:51.266Z,97033.63
2019-03-23T09:18:10.151Z,97034.23
2019-03-23T09:23:26.699Z,97040.60
2019-03-23T09:28:33.367Z,97043.20
2019-03-23T09:31:04.510Z,97040.69
2019-03-23T09:33:31.930Z,97041.95
2019-03-23T09:35:59.272Z,97045.08
2019-03-23T09:38:26.623Z,97041.94
2019-03-23T09:40:53.681Z,97039.06
2019-03-23T09:43:20.796Z,97038.67
2019-03-23T09:45:47.850Z,97040.12
2019-03-23T09:48:15.227Z,97046.81
2019-03-23T09:50:42.578Z,97042.39
2019-03-23T09:53:09.867Z,97035.11
2019-03-23T09:55:37.188Z,97035.38
2019-03-23T09:58:04.235Z,97034.95
2019-03-23T10:00:31.303Z,97035.92
2019-03-23T10:02:58.349Z,97033.63
2019-03-23T10:05:25.687Z,97032.60
2019-03-23T10:07:52.733Z,97026.77
2019-03-23T10:10:22.003Z,97025.75
2019-03-23T10:12:48.535Z,97031.59
2019-03-23T10:15:15.956Z,97028.93
2019-03-23T10:17:43.007Z,97035.16
2019-03-23T10:20:10.056Z,97026.83
2019-03-23T10:22:37.365Z,97020.88
2019-03-23T10:25:05.375Z,97028.66
2019-03-23T10:27:32.703Z,97027.30
2019-03-23T10:30:00.116Z,97027.20
2019-03-23T10:32:27.459Z,97027.60
2019-03-23T10:34:54.506Z,97023.63
2019-03-23T10:37:22.640Z,97021.74
2019-03-23T10:39:49.687Z,97019.37
2019-03-23T10:42:16.766Z,97018.40
2019-03-23T10:44:44.089Z,97018.39
2019-03-23T10:47:11.411Z,97015.97
2019-03-23T10:49:38.699Z,97016.28
2019-03-23T10:52:05.995Z,97016.98
2019-03-23T10:54:33.303Z,97015.27
2019-03-23T10:57:00.607Z,97013.02
2019-03-23T10:59:28.134Z,97007.28
2019-03-23T11:01:55.160Z,97008.62
2019-03-23T11:04:22.200Z,97012.48
2019-03-23T11:06:49.565Z,97004.52
2019-03-23T11:09:16.612Z,97006.25
2019-03-23T11:11:43.666Z,97005.17
2019-03-23T11:14:11.038Z,97007.43
2019-03-23T11:16:38.390Z,97006.90
2019-03-23T11:19:13.365Z,97006.00
2019-03-23T11:21:34.826Z,97006.98
2019-03-23T11:24:01.869Z,97007.59
2019-03-23T11:26:28.936Z,97003.08
2019-03-23T11:28:55.975Z,97008.92
2019-03-23T11:34:04.508Z,97007.17
2019-03-23T11:36:31.564Z,97016.86
2019-03-23T11:38:58.908Z,97013.62
2019-03-23T11:41:26.214Z,97014.47
2019-03-23T11:43:53.258Z,97007.00
2019-03-23T11:46:20.304Z,97003.84
2019-03-23T11:48:50.597Z,97008.73
2019-03-23T11:51:17.803Z,97001.54
2019-03-23T11:53:45.111Z,97007.83
2019-03-23T11:56:12.446Z,96999.27
2019-03-23T11:58:39.843Z,97004.13
2019-03-23T12:01:06.887Z,96995.27
2019-03-23T12:03:33.956Z,96989.00
2019-03-23T12:06:01.002Z,96990.06
2019-03-23T12:08:28.060Z,96991.53
2019-03-23T12:11:02.866Z,96985.98
2019-03-23T12:16:13.007Z,96993.52
2019-03-23T12:18:40.289Z,96991.06
2019-03-23T12:21:22.681Z,96985.43
2019-03-23T12:23:50.112Z,96980.77
2019-03-23T12:26:17.805Z,96978.17
2019-03-23T12:28:44.858Z,96982.23
2019-03-23T12:31:22.946Z,96984.94
2019-03-23T12:39:05.310Z,96976.78
2019-03-23T12:41:42.986Z,96974.50
2019-03-23T12:44:11.179Z,96971.73
2019-03-23T12:46:48.491Z,96968.70
2019-03-23T12:49:15.114Z,96964.27
2019-03-23T12:51:51.357Z,96961.29
2019-03-23T12:54:20.831Z,96956.47
2019-03-23T12:56:59.373Z,96957.05
2019-03-23T12:59:27.011Z,96955.00
2019-03-23T13:02:05.246Z,96953.93
2019-03-23T13:04:33.452Z,96953.23
2019-03-23T13:07:07.640Z,96946.18
2019-03-23T13:12:21.984Z,96949.18
2019-03-23T13:14:53.301Z,96939.75
2019-03-23T13:20:04.461Z,96931.39
2019-03-23T13:22:36.028Z,96931.72
2019-03-23T13:25:03.078Z,96928.12
2019-03-23T13:27:31.619Z,96928.44
2019-03-23T13:29:58.786Z,96915.25
2019-03-23T13:32:27.244Z,96923.78
2019-03-23T13:35:07.934Z,96921.63
2019-03-23T13:40:13.702Z,96917.20
2019-03-23T13:48:00.831Z,96909.23
2019-03-23T13:50:27.877Z,96913.72
2019-03-23T13:52:55.355Z,96906.64
2019-03-23T13:55:24.843Z,96900.05
2019-03-23T13:57:56.753Z,96901.41
2019-03-23T14:03:27.683Z,96884.63
2019-03-23T14:06:13.780Z,96887.36
2019-03-23T14:08:46.894Z,96887.05
2019-03-23T14:11:27.235Z,96887.15
2019-03-23T14:13:55.431Z,96885.50
2019-03-23T14:16:23.191Z,96888.41
2019-03-23T14:18:51.370Z,96885.83
2019-03-23T14:21:31.729Z,96888.16
2019-03-23T14:26:38.504Z,96884.67
2019-03-23T14:29:05.779Z,96888.28
2019-03-23T14:31:34.214Z,96883.84
2019-03-23T14:34:06.322Z,96885.77
2019-03-23T14:36:34.578Z,96881.17
2019-03-23T14:39:06.529Z,96882.58
2019-03-23T14:41:47.259Z,96877.44
2019-03-23T14:44:15.664Z,96875.19
2019-03-23T14:46:45.914Z,96875.77
2019-03-23T14:51:50.014Z,96875.26
2019-03-23T15:04:58.976Z,96875.97
2019-03-23T15:07:32.029Z,96878.80
2019-03-23T15:09:59.302Z,96875.48
2019-03-23T15:18:07.755Z,96875.87
2019-03-23T15:23:08.464Z,96867.78
2019-03-23T15:25:35.528Z,96872.31
2019-03-23T15:28:08.628Z,96869.73
2019-03-23T15:30:40.257Z,96868.16
2019-03-23T15:33:14.503Z,96867.79
2019-03-23T15:38:18.782Z,96869.30
2019-03-23T15:40:47.300Z,96869.67
2019-03-23T15:43:22.385Z,96867.94
2019-03-23T15:48:23.940Z,96875.28
2019-03-23T15:56:14.224Z,96866.84
2019-03-23T16:01:30.720Z,96871.91
2019-03-23T16:04:08.137Z,96874.60
2019-03-23T16:09:11.651Z,96868.52
2019-03-23T16:14:33.345Z,96863.36
2019-03-23T16:17:07.335Z,96875.01
2019-03-23T16:19:40.604Z,96876.42
2019-03-23T16:22:12.084Z,96869.73
2019-03-23T16:27:14.700Z,96875.47
2019-03-23T16:29:46.321Z,96878.26
2019-03-23T16:32:26.477Z,96876.52
2019-03-23T16:34:55.963Z,96872.16
2019-03-23T16:37:40.546Z,96868.50
2019-03-23T16:40:08.099Z,96877.89
2019-03-23T16:42:50.451Z,96881.56
2019-03-23T16:45:22.190Z,96878.03
2019-03-23T16:48:00.389Z,96878.28
2019-03-23T16:50:32.628Z,96878.81
2019-03-23T16:53:06.776Z,96877.09
2019-03-23T16:55:34.066Z,96877.00
2019-03-23T16:58:05.239Z,96876.63
2019-03-23T17:00:37.030Z,96877.84
2019-03-23T17:03:04.274Z,96879.38
2019-03-23T17:05:31.547Z,96878.28
2019-03-23T17:08:05.305Z,96878.81
2019-03-23T17:10:33.655Z,96882.97
2019-03-23T17:13:06.701Z,96880.75
2019-03-23T17:15:38.477Z,96875.20
2019-03-23T17:18:13.798Z,96887.05
2019-03-23T17:20:42.002Z,96888.56
2019-03-23T17:23:22.232Z,96888.23
2019-03-23T17:25:53.657Z,96887.27
2019-03-23T17:31:11.120Z,96884.55
2019-03-23T17:33:48.789Z,96889.48
2019-03-23T17:36:16.920Z,96891.33
2019-03-23T17:38:45.075Z,96883.95
2019-03-23T17:41:13.647Z,96890.67
2019-03-23T17:43:45.007Z,96889.03
2019-03-23T17:46:14.223Z,96895.59
2019-03-23T17:48:48.321Z,96896.23
2019-03-23T17:51:15.596Z,96894.10
2019-03-23T17:56:36.180Z,96900.14
2019-03-23T17:59:04.644Z,96900.66
2019-03-23T18:01:36.756Z,96903.92
2019-03-23T18:04:06.220Z,96906.84
2019-03-23T18:06:33.409Z,96905.66
2019-03-23T18:09:01.944Z,96910.23
2019-03-23T18:14:21.130Z,96913.30
2019-03-23T18:16:48.332Z,96914.59
2019-03-23T18:19:28.875Z,96924.23
2019-03-23T18:21:58.451Z,96922.37
2019-03-23T18:24:31.880Z,96926.61
2019-03-23T18:26:59.228Z,96924.14
2019-03-23T18:29:33.216Z,96930.36
2019-03-23T18:34:51.890Z,96936.42
2019-03-23T18:37:20.517Z,96931.53
2019-03-23T18:39:48.679Z,96930.42
2019-03-23T18:44:54.927Z,96938.47
2019-03-23T18:47:26.527Z,96935.55
2019-03-23T18:49:55.711Z,96936.17
2019-03-23T18:54:56.682Z,96945.27
2019-03-23T19:00:10.538Z,96948.00
2019-03-23T19:02:38.718Z,96952.09
2019-03-23T19:05:16.194Z,96947.52
2019-03-23T19:15:48.334Z,96945.70
2019-03-23T19:18:16.611Z,96945.67
2019-03-23T19:20:46.911Z,96943.70
2019-03-23T19:23:17.469Z,96945.83
2019-03-23T19:25:44.669Z,96942.53
2019-03-23T19:28:11.943Z,96951.01
2019-03-23T19:30:41.148Z,96945.54
2019-03-23T19:35:43.044Z,96941.73
2019-03-23T19:38:11.219Z,96939.05
2019-03-23T19:40:47.968Z,96941.97
2019-03-23T19:43:16.179Z,96937.03
2019-03-23T19:45:45.673Z,96934.20
2019-03-23T19:48:15.779Z,96935.31
2019-03-23T19:50:44.084Z,96939.23
2019-03-23T19:53:16.238Z,96927.95
2019-03-23T19:55:44.691Z,96935.73
2019-03-23T19:58:12.838Z,96937.52
2019-03-23T20:00:40.043Z,96944.39
2019-03-23T20:03:11.920Z,96938.98
2019-03-23T20:05:49.290Z,96937.52
2019-03-23T20:11:12.835Z,96943.23
2019-03-23T20:13:40.954Z,96941.89
2019-03-23T20:16:09.110Z,96945.14
2019-03-23T20:21:08.614Z,96938.64
2019-03-23T20:28:48.738Z,96946.53
2019-03-23T20:31:25.188Z,96946.38
2019-03-23T20:33:54.772Z,96945.37
2019-03-23T20:39:09.446Z,96945.48
2019-03-23T20:41:37.733Z,96957.21
2019-03-23T20:44:09.416Z,96953.10
2019-03-23T20:46:40.877Z,96952.42
2019-03-23T20:49:12.031Z,96950.97
2019-03-23T20:51:55.823Z,96943.95
2019-03-23T20:54:23.396Z,96942.53
2019-03-23T20:56:54.420Z,96939.05
2019-03-23T20:59:22.004Z,96944.58
2019-03-23T21:01:50.561Z,96941.44
2019-03-23T21:04:17.759Z,96939.95
2019-03-23T21:06:44.993Z,96940.43
2019-03-23T21:09:17.341Z,96937.81
2019-03-23T21:11:45.031Z,96948.61
2019-03-23T21:14:20.114Z,96940.39
2019-03-23T21:16:45.973Z,96949.50
2019-03-23T21:19:15.210Z,96947.65
2019-03-23T21:21:50.227Z,96948.58
2019-03-23T21:27:00.206Z,96948.97
2019-03-23T21:29:28.434Z,96939.09
2019-03-23T21:32:00.637Z,96941.33
2019-03-23T21:37:06.625Z,96935.86
2019-03-23T21:39:34.258Z,96936.00
2019-03-23T21:42:15.550Z,96942.00
2019-03-23T21:44:43.743Z,96943.45
2019-03-23T21:47:17.300Z,96939.20
2019-03-23T21:49:45.525Z,96938.95
2019-03-23T21:52:16.253Z,96934.96
2019-03-23T21:54:44.435Z,96936.70
2019-03-23T21:57:12.475Z,96934.57
2019-03-23T21:59:41.696Z,96936.36
2019-03-23T22:02:09.991Z,96935.34
2019-03-23T22:04:38.151Z,96933.70
2019-03-23T22:07:15.417Z,96937.75
2019-03-23T22:09:46.847Z,96930.55
2019-03-23T22:12:17.193Z,96934.17
2019-03-23T22:14:44.626Z,96932.10
2019-03-23T22:17:19.597Z,96925.23
2019-03-23T22:19:47.778Z,96925.41
2019-03-23T22:22:16.035Z,96918.44
2019-03-23T22:24:44.489Z,96917.36
2019-03-23T22:27:12.228Z,96924.45
2019-03-23T22:29:39.282Z,96917.73
2019-03-23T22:32:20.612Z,96916.48
2019-03-23T22:37:23.178Z,96910.41
2019-03-23T22:42:26.841Z,96907.66
2019-03-23T22:50:17.685Z,96900.37
2019-03-23T22:52:51.337Z,96901.13
2019-03-23T22:55:22.222Z,96894.98
2019-03-23T22:57:50.384Z,96894.67
2019-03-23T23:00:23.749Z,96888.06
2019-03-23T23:03:03.802Z,96885.69
2019-03-23T23:10:45.778Z,96875.02
2019-03-23T23:13:19.232Z,96877.22
2019-03-23T23:15:50.833Z,96876.53
2019-03-23T23:18:26.050Z,96876.81
2019-03-23T23:20:54.245Z,96874.97
2019-03-23T23:23:21.478Z,96868.05
2019-03-23T23:25:50.058Z,96865.69
2019-03-23T23:28:25.099Z,96871.55
2019-03-23T23:30:52.150Z,96864.01
2019-03-23T23:33:26.571Z,96853.86
2019-03-23T23:35:58.448Z,96859.01
2019-03-23T23:41:25.062Z,96858.88
2019-03-23T23:46:28.695Z,96864.50
2019-03-23T23:48:56.690Z,96858.13
2019-03-23T23:51:26.155Z,96859.02
2019-03-23T23:53:53.845Z,96853.73
2019-03-23T23:56:23.373Z,96855.93
2019-03-23T23:58:55.302Z,96852.09
